Stockbridge, Wisconsin
Current Conditions -  °F | °C
As of 9:53 PM on Tuesday 21 Oct 2014 (Local Time) from KOSH Reporting Station
Clear Clear  
Wind Chill: 36°   Ceiling: Unl
Heat Index: 39°   Visibility: 10mi
Dew Point: 35°   Wind: 5mph
Humidity: 86%   Direction: 160°SSE
Pressure: 30.28"   Gusts: NA
Location:  44.07°N, 88.3°W
Report Text: KOSH 220253Z 16004KT 10SM CLR 04/02 A3028 RMK AO2 SLP262 T00390017 53013
Loading
Personal Weather Stations






























Interactive Weather Map
Tropical Storm Tracking
New forecast layout! Learn more

10-Day Weather Forecast

Advertisements
Track Severe Weather on mobile